Flight Track Log - Related Links

Times and Time Zones

All times are in EDT time to prevent confusion due to time zone crossing. See the N3746H flight status page for this flight to view local times or setup timezone preferences in your user account.

Time Position Orientation Groundspeed Altitude Reporting Facility
EDT Latitude Longitude Course Direction KTS MPH feet Rate Location/Type
Fri 03:31:26 PM 33.6500 -84.4833 270° West 182 209 3,300  Level Atlanta TRACON
Fri 03:32:26 PM 33.6667 -84.5500 287° West 240 276 6,300 2,261 Climbing Atlanta TRACON
Fri 03:33:00 PM 33.8001 -84.3510 270° West  Level FlightAware Approximate
Fri 03:34:00 PM 33.8001 -84.4844 270° West  Level FlightAware Approximate
Fri 03:34:53 PM 33.7003 -84.7703 280° West 279 321 11,100  Level Atlanta Center
Fri 03:35:00 PM 33.8000 -84.6178 270° West  Level FlightAware Approximate
Fri 03:35:53 PM 33.7183 -84.8856 281° West 338 389 13,600  Level Atlanta Center
Fri 03:36:00 PM 33.8001 -84.7512 270° West  Level FlightAware Approximate
Fri 03:36:53 PM 33.7342 -84.9956 280° West 363 418 15,700  Level Atlanta Center
Fri 03:37:53 PM 33.7500 -85.1106 279° West 368 423 19,600 3,100 Climbing Atlanta Center
Fri 03:38:53 PM 33.7656 -85.2183 280° West 345 397 21,900 2,100 Climbing Atlanta Center
Fri 03:39:53 PM 33.7856 -85.3286 282° West 340 391 23,800 1,350 Climbing Atlanta Center
Fri 03:40:53 PM 33.8050 -85.4439 282° West 340 391 24,600 700 Climbing Atlanta Center
Fri 03:41:53 PM 33.8286 -85.5767 282° West 381 438 25,200 850 Climbing Atlanta Center
Fri 03:42:53 PM 33.8600 -85.7175 285° West 401 461 26,300 1,000 Climbing Atlanta Center
Fri 03:43:53 PM 33.9000 -85.8358 292° West 417 480 27,200 1,150 Climbing Atlanta Center
Fri 03:44:53 PM 33.9439 -85.9719 291° West 430 495 28,600 1,400 Climbing Atlanta Center
Fri 03:45:53 PM 33.9856 -86.1106 290° West 435 501 30,000 1,650 Climbing Atlanta Center
Fri 03:46:53 PM 34.0228 -86.2444 289° West 430 495 31,900 1,600 Climbing Atlanta Center
Fri 03:47:53 PM 34.0603 -86.3733 289° West 425 489 33,200 700 Climbing Atlanta Center
Fri 03:49:53 PM 34.1314 -86.6358 288° West 419 482 34,000 267 Climbing Memphis Center
Fri 03:50:53 PM 34.1686 -86.7672 289° West 419 482 34,000  Level Memphis Center
Fri 03:51:53 PM 34.2083 -86.9139 288° West 425 489 34,000  Level Memphis Center
Fri 03:52:53 PM 34.2428 -87.0331 289° West 412 474 34,000  Level Memphis Center
Fri 03:53:53 PM 34.2756 -87.1600 287° West 397 457 34,000  Level Memphis Center
Fri 03:54:53 PM 34.3072 -87.2644 290° West 385 443 34,000  Level Memphis Center
Fri 03:55:53 PM 34.3394 -87.3864 288° West 379 436 34,000  Level Memphis Center
Fri 03:56:53 PM 34.3736 -87.5111 288° West 379 436 34,000  Level Memphis Center
Fri 03:57:53 PM 34.4081 -87.6433 288° West 384 442 34,000  Level Memphis Center
Fri 03:58:53 PM 34.4439 -87.7656 290° West 379 436 34,000  Level Memphis Center
Fri 03:59:53 PM 34.4758 -87.8906 287° West 379 436 34,000  Level Memphis Center
Fri 04:00:53 PM 34.5072 -88.0133 287° West 379 436 34,000  Level Memphis Center
Fri 04:01:53 PM 34.5408 -88.1333 289° West 374 430 34,000  Level Memphis Center
Fri 04:02:53 PM 34.5744 -88.2586 288° West 388 447 34,000  Level Memphis Center
Fri 04:03:53 PM 34.6056 -88.3789 287° West 388 447 34,000  Level Memphis Center
Fri 04:04:53 PM 34.6300 -88.4742 287° West 382 440 34,000  Level Memphis Center
Fri 04:05:53 PM 34.6675 -88.6122 288° West 366 421 34,000  Level Memphis Center
Fri 04:06:53 PM 34.6983 -88.7328 287° West 366 421 34,000  Level Memphis Center
Fri 04:07:53 PM 34.7247 -88.8411 287° West 366 421 34,000  Level Memphis Center
Fri 04:08:53 PM 34.7575 -88.9669 288° West 382 440 34,000  Level Memphis Center
Fri 04:09:53 PM 34.7900 -89.0903 288° West 382 440 34,000  Level Memphis Center
Fri 04:10:53 PM 34.8225 -89.2161 287° West 382 440 34,000  Level Memphis Center
Fri 04:11:53 PM 34.8550 -89.3422 287° West 382 440 34,000  Level Memphis Center
Fri 04:12:53 PM 34.8872 -89.4661 288° West 388 447 34,000  Level Memphis Center
Fri 04:13:53 PM 34.9214 -89.5922 288° West 388 447 34,000 100 Level Memphis Center
Fri 04:14:53 PM 34.9492 -89.7086 286° West 388 447 34,200 500 Climbing Memphis Center
Fri 04:15:53 PM 34.9875 -89.8528 288° West 405 466 35,000 400 Climbing Memphis Center
Fri 04:16:53 PM 35.0172 -89.9767 286° West 398 458 35,000  Level Memphis Center
Fri 04:17:53 PM 35.0633 -90.0958 295° West 392 451 35,000  Level Memphis Center
Fri 04:18:53 PM 35.1117 -90.2200 295° West 398 458 35,000 100 Level Memphis Center
Fri 04:19:53 PM 35.1617 -90.3419 297° West 403 464 35,200 500 Climbing Memphis Center
Fri 04:20:53 PM 35.2097 -90.4664 295° West 403 464 36,000 267 Climbing Memphis Center
Fri 04:22:53 PM 35.3094 -90.7183 296° West 397 457 36,000  Level Memphis Center
Fri 04:23:53 PM 35.3569 -90.8383 296° West 402 463 36,000  Level Memphis Center
Fri 04:24:53 PM 35.4044 -90.9608 295° West 402 463 36,000  Level Memphis Center
Fri 04:25:53 PM 35.4517 -91.0833 295° West 402 463 36,000  Level Memphis Center
Fri 04:26:53 PM 35.5031 -91.2089 297° West 402 463 36,000  Level Memphis Center
Fri 04:27:53 PM 35.5481 -91.3344 294° West 402 463 36,000  Level Memphis Center
Fri 04:28:53 PM 35.5950 -91.4422 298° West 402 463 36,000  Level Memphis Center
Fri 04:29:53 PM 35.6419 -91.5706 294° West 402 463 36,000  Level Memphis Center
Fri 04:30:53 PM 35.6886 -91.6964 295° West 407 468 36,000  Level Memphis Center
Fri 04:31:53 PM 35.7372 -91.8225 295° West 407 468 36,000  Level Memphis Center
Fri 04:32:53 PM 35.7858 -91.9461 296° West 402 463 36,000  Level Memphis Center
Fri 04:33:53 PM 35.8319 -92.0700 295° West 402 463 36,000  Level Memphis Center
Fri 04:34:53 PM 35.8761 -92.1939 294° West 402 463 36,000  Level Memphis Center
Fri 04:35:53 PM 35.9264 -92.3206 296° West 402 463 36,000  Level Memphis Center
Fri 04:36:53 PM 35.9722 -92.4472 294° West 402 463 36,000  Level Memphis Center
Fri 04:37:53 PM 36.0203 -92.5692 296° West 402 463 36,000  Level Memphis Center
Fri 04:38:53 PM 36.0639 -92.6883 294° West 402 463 36,000  Level Memphis Center
Fri 04:39:53 PM 36.1094 -92.8131 294° West 402 463 36,000  Level Memphis Center
Fri 04:40:53 PM 36.1528 -92.9353 294° West 402 463 36,000  Level Memphis Center
Fri 04:41:53 PM 36.1983 -93.0525 296° West 397 457 36,000  Level Memphis Center
Fri 04:42:53 PM 36.2417 -93.1747 294° West 391 450 36,000  Level Memphis Center
Fri 04:43:53 PM 36.2847 -93.2919 295° West 384 442 36,000  Level Memphis Center
Fri 04:44:53 PM 36.3278 -93.4119 294° West 384 442 36,000  Level Memphis Center
Fri 04:47:06 PM 36.4192 -93.6625 294° West 378 435 36,000  Level Kansas City Center
Fri 04:48:09 PM 36.4725 -93.8019 295° West 375 432 36,000  Level Kansas City Center
Fri 04:49:10 PM 36.5144 -93.9189 294° West 373 429 36,000  Level Kansas City Center
Fri 04:50:14 PM 36.5556 -94.0361 294° West 371 427 36,000  Level Kansas City Center
Fri 04:51:15 PM 36.5967 -94.1536 294° West 371 427 36,000  Level Kansas City Center
Fri 04:52:15 PM 36.6383 -94.2697 294° West 369 425 36,000  Level Kansas City Center
Fri 04:53:18 PM 36.6794 -94.3886 293° West 371 427 36,000  Level Kansas City Center
Fri 04:54:19 PM 36.7314 -94.5322 294° West 376 433 36,000  Level Kansas City Center
Fri 04:55:23 PM 36.7719 -94.6539 293° West 380 437 36,000  Level Kansas City Center
Fri 04:56:23 PM 36.8144 -94.7747 294° West 380 437 36,000  Level Kansas City Center
Fri 04:57:27 PM 36.8564 -94.8956 293° West 381 438 36,000  Level Kansas City Center
Fri 04:58:28 PM 36.8986 -95.0181 293° West 384 442 36,000  Level Kansas City Center
Fri 04:59:31 PM 36.9503 -95.1661 294° West 388 447 36,000  Level Kansas City Center
Fri 05:00:33 PM 36.9914 -95.2900 293° West 388 447 36,000  Level Kansas City Center
Fri 05:01:37 PM 37.0347 -95.4153 293° West 391 450 36,000  Level Kansas City Center
Fri 05:02:37 PM 37.0775 -95.5450 292° West 400 460 36,000  Level Kansas City Center
Fri 05:03:41 PM 37.1197 -95.6714 293° West 396 456 36,000  Level Kansas City Center
Fri 05:04:42 PM 37.1625 -95.7989 293° West 396 456 36,000 339 Level Kansas City Center
Fri 05:05:45 PM 37.2017 -95.9567 287° West 394 453 36,700 768 Climbing Kansas City Center
Fri 05:06:47 PM 37.2250 -96.0917 282° West 395 455 37,600 634 Climbing Kansas City Center
Fri 05:07:48 PM 37.2475 -96.2258 282° West 394 453 38,000 194 Climbing Kansas City Center
Fri 05:08:51 PM 37.2706 -96.3600 282° West 394 453 38,000  Level Kansas City Center
Fri 05:09:52 PM 37.2944 -96.5086 281° West 392 451 38,000  Level Kansas City Center
Fri 05:10:53 PM 37.3178 -96.6422 282° West 391 450 38,000  Level Kansas City Center
Fri 05:11:57 PM 37.3408 -96.7764 282° West 393 452 38,000  Level Kansas City Center
Fri 05:12:58 PM 37.3622 -96.9114 281° West 394 453 38,000  Level Kansas City Center
Fri 05:14:02 PM 37.3861 -97.0464 283° West 396 456 38,000  Level Kansas City Center
Fri 05:15:02 PM 37.4072 -97.1836 281° West 399 459 38,000  Level Kansas City Center
Fri 05:16:04 PM 37.4300 -97.3200 282° West 398 458 38,000  Level Kansas City Center
Fri 05:17:05 PM 37.4567 -97.4869 281° West 396 456 38,000  Level Kansas City Center
Fri 05:18:08 PM 37.4772 -97.6197 281° West 394 453 38,000  Level Kansas City Center
Fri 05:19:11 PM 37.4986 -97.7564 281° West 395 455 38,000  Level Kansas City Center
Fri 05:20:12 PM 37.5192 -97.8939 281° West 396 456 38,000  Level Kansas City Center
Fri 05:21:16 PM 37.5400 -98.0292 281° West 393 452 38,000  Level Kansas City Center
Fri 05:22:16 PM 37.5597 -98.1631 281° West 388 447 38,000  Level Kansas City Center
Fri 05:23:17 PM 37.5800 -98.2939 281° West 382 440 38,000  Level Kansas City Center
Fri 05:24:22 PM 37.5994 -98.4258 281° West 381 438 38,000  Level Kansas City Center
Fri 05:25:22 PM 37.6219 -98.5836 280° West 380 437 38,000  Level Kansas City Center
Fri 05:26:24 PM 37.6417 -98.7194 280° West 387 445 38,000  Level Kansas City Center
Fri 05:27:27 PM 37.6633 -98.8575 281° West 397 457 38,000  Level Kansas City Center
Fri 05:28:28 PM 37.6825 -98.9967 280° West 401 461 38,000  Level Kansas City Center
Fri 05:29:32 PM 37.7031 -99.1339 281° West 399 459 38,000  Level Kansas City Center
Fri 05:30:33 PM 37.7222 -99.2736 280° West 401 461 38,000  Level Kansas City Center
Fri 05:31:36 PM 37.7458 -99.4392 280° West 400 460 38,000  Level Kansas City Center
Fri 05:32:38 PM 37.7639 -99.5714 280° West 401 461 38,000  Level Kansas City Center
Fri 05:33:39 PM 37.7853 -99.7267 280° West 402 463 38,000  Level Kansas City Center
Fri 05:34:40 PM 37.8044 -99.8586 280° West 401 461 38,000  Level Kansas City Center
Fri 05:35:44 PM 37.8253 -100.0139 280° West 402 463 38,000  Level Kansas City Center
Fri 05:36:44 PM 37.8431 -100.1492 279° West 406 467 38,000  Level Kansas City Center
Fri 05:37:48 PM 37.8644 -100.3050 280° West 405 466 38,000  Level Kansas City Center
Fri 05:38:50 PM 37.8817 -100.4394 279° West 405 466 38,000  Level Kansas City Center
Fri 05:39:50 PM 37.9025 -100.5969 280° West 408 470 38,000  Level Kansas City Center
Fri 05:40:54 PM 37.9214 -100.7303 280° West 407 468 38,000  Level Kansas City Center
Fri 05:41:55 PM 37.9744 -100.8692 296° West 396 456 38,000  Level Kansas City Center
Fri 05:42:15 PM 37.9903 -100.9092 297° West 398 458 38,000  Level Denver Center
Fri 05:43:17 PM 38.0364 -101.0286 296° West 398 458 38,000  Level Denver Center
Fri 05:44:19 PM 38.1017 -101.1603 302° West 396 456 38,000  Level Denver Center
Fri 05:45:21 PM 38.1567 -101.2731 302° West 394 453 38,000  Level Denver Center
Fri 05:46:23 PM 38.2200 -101.4050 301° West 393 452 38,000 -290 Level Denver Center
Fri 05:47:25 PM 38.2758 -101.5178 302° West 394 453 37,400 -823 Descending Denver Center
Fri 05:48:27 PM 38.3386 -101.6506 301° West 393 452 36,300 -677 Descending Denver Center
Fri 05:49:29 PM 38.3922 -101.7619 302° West 387 445 36,000 -145 Descending Denver Center
Fri 05:50:31 PM 38.4553 -101.8942 301° West 390 449 36,000  Level Denver Center
Fri 05:51:33 PM 38.5092 -102.0075 301° West 392 451 36,000  Level Denver Center
Fri 05:52:35 PM 38.5722 -102.1411 301° West 392 451 36,000  Level Denver Center
Fri 05:53:37 PM 38.6264 -102.2547 301° West 392 451 36,000  Level Denver Center
Fri 05:54:39 PM 38.6883 -102.3889 301° West 392 451 36,000 -290 Level Denver Center
Fri 05:55:41 PM 38.7419 -102.5025 301° West 391 450 35,400 -774 Descending Denver Center
Fri 05:56:43 PM 38.8050 -102.6386 301° West 396 456 34,400 -968 Descending Denver Center
Fri 05:57:45 PM 38.8628 -102.7644 301° West 392 451 33,400 -968 Descending Denver Center
Fri 05:58:47 PM 38.9197 -102.8853 301° West 391 450 32,400 -919 Descending Denver Center
Fri 05:59:49 PM 38.9747 -103.0081 300° West 393 452 31,500 -919 Descending Denver Center
Fri 06:00:51 PM 39.0331 -103.1319 301° West 399 459 30,500 -823 Descending Denver Center
Fri 06:01:53 PM 39.0892 -103.2583 300° West 402 463 29,800 -1,645 Descending Denver Center
Fri 06:02:55 PM 39.1464 -103.3831 301° West 402 463 27,100 -2,758 Descending Denver Center
Fri 06:03:57 PM 39.2033 -103.5067 301° West 399 459 24,100 -2,758 Descending Denver Center
Fri 06:04:59 PM 39.2564 -103.6272 300° West 385 443 21,400 -2,661 Descending Denver Center
Fri 06:06:01 PM 39.3194 -103.7642 301° West 378 435 18,600 -1,742 Descending Denver Center
Fri 06:07:03 PM 39.3692 -103.8764 300° West 363 418 17,800 -919 Descending Denver Center
Fri 06:08:05 PM 39.3986 -103.9847 289° West 322 371 16,700 -1,258 Descending Denver Center
Fri 06:09:07 PM 39.4042 -104.0964 274° West 312 359 15,200 -1,548 Descending Denver Center
Fri 06:10:09 PM 39.4083 -104.2192 273° West 317 365 13,500 -1,452 Descending Denver Center
Fri 06:11:11 PM 39.4133 -104.3283 273° West 308 354 12,200 -1,306 Descending Denver Center
Fri 06:12:13 PM 39.4481 -104.4242 295° West 320 368 10,800 -1,065 Descending Denver Center
Fri 06:13:15 PM 39.5064 -104.5067 313° West 290 334 10,000 -677 Descending Denver Center
Fri 06:14:17 PM 39.5719 -104.5469 335° Northwest 254 292 9,400 -581 Descending Denver Center

Login

Don't have an account? Register now (free) for customized features, flight alerts, and more!